createdAt,value
2022-12-15T00:02:35.680Z,-7.42
2022-12-15T00:05:22.942Z,-7.43
2022-12-15T00:08:08.792Z,-7.46
2022-12-15T00:10:54.474Z,-7.53
2022-12-15T00:13:40.066Z,-7.60
2022-12-15T00:16:26.418Z,-7.53
2022-12-15T00:19:12.232Z,-7.64
2022-12-15T00:21:58.031Z,-7.70
2022-12-15T00:24:43.592Z,-7.72
2022-12-15T00:27:29.375Z,-7.77
2022-12-15T00:30:15.070Z,-7.86
2022-12-15T00:33:00.627Z,-7.90
2022-12-15T00:35:46.181Z,-7.95
2022-12-15T00:38:33.350Z,-8.08
2022-12-15T00:41:01.547Z,-8.01
2022-12-15T00:43:31.194Z,-7.95
2022-12-15T00:46:18.007Z,-7.94
2022-12-15T00:48:45.861Z,-7.99
2022-12-15T00:51:14.279Z,-8.01
2022-12-15T00:54:00.356Z,-8.03
2022-12-15T00:56:46.364Z,-8.06
2022-12-15T00:59:32.835Z,-8.05
2022-12-15T01:02:18.721Z,-8.12
2022-12-15T01:05:05.086Z,-8.21
2022-12-15T01:07:51.351Z,-8.22
2022-12-15T01:10:37.316Z,-8.23
2022-12-15T01:13:24.072Z,-8.30
2022-12-15T01:16:10.166Z,-8.34
2022-12-15T01:18:56.008Z,-8.32
2022-12-15T01:21:24.855Z,-8.41
2022-12-15T01:23:52.913Z,-8.45
2022-12-15T01:26:20.475Z,-8.45
2022-12-15T01:28:47.675Z,-8.40
2022-12-15T01:31:15.027Z,-8.24
2022-12-15T01:33:45.028Z,-8.20
2022-12-15T01:36:12.264Z,-8.10
2022-12-15T01:38:39.376Z,-8.08
2022-12-15T01:41:09.968Z,-8.01
2022-12-15T01:43:39.373Z,-7.97
2022-12-15T01:46:11.003Z,-7.93
2022-12-15T01:48:41.829Z,-7.93
2022-12-15T01:51:15.569Z,-7.90
2022-12-15T01:53:54.822Z,-7.83
2022-12-15T01:56:24.867Z,-7.86
2022-12-15T01:58:54.935Z,-7.86
2022-12-15T02:01:22.749Z,-7.82
2022-12-15T02:03:50.141Z,-7.82
2022-12-15T02:06:21.531Z,-7.80
2022-12-15T02:08:53.319Z,-7.79
2022-12-15T02:11:44.421Z,-7.75
2022-12-15T02:14:18.485Z,-7.70
2022-12-15T02:16:48.574Z,-7.66
2022-12-15T02:19:53.538Z,-7.61
2022-12-15T02:23:02.144Z,-7.58
2022-12-15T02:25:43.233Z,-7.51
2022-12-15T02:28:27.114Z,-7.50
2022-12-15T02:31:22.527Z,-7.52
2022-12-15T02:33:54.811Z,-7.62
2022-12-15T02:36:43.953Z,-7.71
2022-12-15T02:39:14.513Z,-7.77
2022-12-15T02:41:45.822Z,-7.85
2022-12-15T02:44:20.023Z,-7.93
2022-12-15T02:46:59.331Z,-7.96
2022-12-15T02:49:38.253Z,-8.00
2022-12-15T02:52:20.556Z,-7.99
2022-12-15T02:55:09.503Z,-7.99
2022-12-15T02:57:54.875Z,-8.07
2022-12-15T03:00:22.883Z,-8.10
2022-12-15T03:02:55.330Z,-8.11
2022-12-15T03:05:24.914Z,-8.15
2022-12-15T03:07:54.082Z,-8.14
2022-12-15T03:10:24.499Z,-8.13
2022-12-15T03:12:52.151Z,-8.17
2022-12-15T03:15:19.578Z,-8.16
2022-12-15T03:17:46.646Z,-8.14
2022-12-15T03:20:13.763Z,-8.16
2022-12-15T03:22:40.903Z,-8.18
2022-12-15T03:25:08.370Z,-8.21
2022-12-15T03:27:35.841Z,-8.14
2022-12-15T03:30:03.718Z,-8.12
2022-12-15T03:32:31.835Z,-8.06
2022-12-15T03:34:58.941Z,-7.89
2022-12-15T03:37:26.066Z,-7.76
2022-12-15T03:39:53.125Z,-7.82
2022-12-15T03:42:40.182Z,-7.86
2022-12-15T03:45:07.634Z,-7.84
2022-12-15T03:47:34.726Z,-7.84
2022-12-15T03:50:01.817Z,-7.81
2022-12-15T03:52:28.891Z,-7.83
2022-12-15T03:54:55.961Z,-7.94
2022-12-15T03:57:23.321Z,-7.99
2022-12-15T03:59:50.409Z,-7.98
2022-12-15T04:02:17.643Z,-8.02
2022-12-15T04:04:44.846Z,-8.09
2022-12-15T04:07:11.924Z,-8.18
2022-12-15T04:09:39.081Z,-8.15
2022-12-15T04:12:06.531Z,-8.20
2022-12-15T04:14:33.724Z,-8.18
2022-12-15T04:17:00.877Z,-8.17
2022-12-15T04:19:46.671Z,-8.12
2022-12-15T04:22:17.745Z,-7.98
2022-12-15T04:25:03.802Z,-7.93
2022-12-15T04:27:49.252Z,-7.89
2022-12-15T04:30:35.143Z,-7.96
2022-12-15T04:33:23.173Z,-8.05
2022-12-15T04:36:12.106Z,-8.03
2022-12-15T04:38:58.588Z,-8.07
2022-12-15T04:41:44.337Z,-8.10
2022-12-15T04:44:30.339Z,-8.19
2022-12-15T04:47:15.773Z,-8.18
2022-12-15T04:50:01.410Z,-8.28
2022-12-15T04:52:47.330Z,-8.27
2022-12-15T04:55:33.010Z,-8.36
2022-12-15T04:58:24.039Z,-8.38
2022-12-15T05:01:10.251Z,-8.32
2022-12-15T05:03:56.738Z,-8.33
2022-12-15T05:06:42.563Z,-8.36
2022-12-15T05:09:28.120Z,-8.40
2022-12-15T05:12:13.759Z,-8.37
2022-12-15T05:14:59.342Z,-8.39
2022-12-15T05:17:45.140Z,-8.41
2022-12-15T05:20:30.986Z,-8.41
2022-12-15T05:23:17.202Z,-8.47
2022-12-15T05:26:02.884Z,-8.51
2022-12-15T05:28:48.802Z,-8.41
2022-12-15T05:31:34.555Z,-8.28
2022-12-15T05:34:05.420Z,-8.26
2022-12-15T05:36:33.706Z,-8.21
2022-12-15T05:39:00.767Z,-8.22
2022-12-15T05:41:27.859Z,-8.23
2022-12-15T05:43:54.974Z,-8.28
2022-12-15T05:46:22.159Z,-8.20
2022-12-15T05:48:49.281Z,-8.04
2022-12-15T05:51:16.387Z,-8.13
2022-12-15T05:53:43.495Z,-8.24
2022-12-15T05:56:12.804Z,-8.31
2022-12-15T05:58:45.181Z,-8.34
2022-12-15T06:01:15.309Z,-8.36
2022-12-15T06:03:42.930Z,-8.34
2022-12-15T06:06:10.714Z,-8.41
2022-12-15T06:08:39.903Z,-8.43
2022-12-15T06:11:07.895Z,-8.50
2022-12-15T06:13:35.357Z,-8.58
2022-12-15T06:16:05.571Z,-8.66
2022-12-15T06:18:35.828Z,-8.64
2022-12-15T06:21:06.598Z,-8.73
2022-12-15T06:23:34.487Z,-8.75
2022-12-15T06:26:10.650Z,-8.68
2022-12-15T06:28:38.447Z,-8.65
2022-12-15T06:31:07.467Z,-8.51
2022-12-15T06:33:35.150Z,-8.57
2022-12-15T06:36:09.650Z,-8.58
2022-12-15T06:38:37.191Z,-8.59
2022-12-15T06:41:05.274Z,-8.35
2022-12-15T06:43:34.598Z,-8.46
2022-12-15T06:46:02.830Z,-8.46
2022-12-15T06:48:30.265Z,-8.48
2022-12-15T06:51:03.632Z,-8.45
2022-12-15T06:53:31.314Z,-8.48
2022-12-15T06:56:01.447Z,-8.43
2022-12-15T06:58:28.844Z,-8.40
2022-12-15T07:00:56.899Z,-8.42
2022-12-15T07:03:24.654Z,-8.48
2022-12-15T07:06:05.145Z,-8.51
2022-12-15T07:08:39.500Z,-8.47
2022-12-15T07:11:10.546Z,-8.51
2022-12-15T07:13:38.546Z,-8.51
2022-12-15T07:16:07.605Z,-8.49
2022-12-15T07:18:34.759Z,-8.48
2022-12-15T07:21:04.433Z,-8.41
2022-12-15T07:23:53.271Z,-8.32
2022-12-15T07:26:19.088Z,-8.18
2022-12-15T07:28:46.160Z,-8.13
2022-12-15T07:31:13.285Z,-8.13
2022-12-15T07:33:40.474Z,-8.01
2022-12-15T07:36:08.516Z,-7.76
2022-12-15T07:38:36.268Z,-7.80
2022-12-15T07:41:05.309Z,-7.64
2022-12-15T07:43:33.216Z,-7.61
2022-12-15T07:46:03.895Z,-7.57
2022-12-15T07:48:31.454Z,-7.45
2022-12-15T07:51:07.380Z,-7.29
2022-12-15T07:53:36.708Z,-7.30
2022-12-15T07:56:08.096Z,-7.17
2022-12-15T07:58:37.299Z,-7.08
2022-12-15T08:01:07.452Z,-6.94
2022-12-15T08:03:36.206Z,-6.92
2022-12-15T08:06:05.568Z,-6.98
2022-12-15T08:08:34.259Z,-7.22
2022-12-15T08:11:09.845Z,-7.63
2022-12-15T08:16:26.231Z,-7.94
2022-12-15T08:22:47.882Z,-8.04
2022-12-15T08:25:15.286Z,-8.06
2022-12-15T08:27:42.567Z,-7.52
2022-12-15T08:30:10.162Z,-6.88
2022-12-15T08:32:37.321Z,-6.77
2022-12-15T08:35:04.728Z,-6.90
2022-12-15T08:37:31.852Z,-6.69
2022-12-15T08:39:59.078Z,-6.41
2022-12-15T08:42:26.337Z,-6.61
2022-12-15T08:44:53.619Z,-6.79
2022-12-15T08:47:20.887Z,-7.06
2022-12-15T08:49:48.655Z,-6.98
2022-12-15T08:52:15.771Z,-6.91
2022-12-15T08:54:42.815Z,-6.81
2022-12-15T08:57:09.959Z,-6.79
2022-12-15T08:59:37.108Z,-6.63
2022-12-15T09:02:04.485Z,-6.66
2022-12-15T09:04:31.813Z,-6.76
2022-12-15T09:06:59.316Z,-6.56
2022-12-15T09:09:26.646Z,-6.68
2022-12-15T09:11:53.877Z,-6.60
2022-12-15T09:14:27.260Z,-6.40
2022-12-15T09:16:56.595Z,-5.96
2022-12-15T09:19:23.803Z,-5.71
2022-12-15T09:21:51.027Z,-5.86
2022-12-15T09:24:28.801Z,-5.95
2022-12-15T09:27:01.798Z,-5.73
2022-12-15T09:29:29.024Z,-5.60
2022-12-15T09:31:56.209Z,-5.42
2022-12-15T09:34:23.379Z,-5.16
2022-12-15T09:36:50.559Z,-4.80
2022-12-15T09:39:18.245Z,-4.46
2022-12-15T09:41:54.608Z,-4.69
2022-12-15T09:44:24.610Z,-4.35
2022-12-15T09:47:11.494Z,-4.49
2022-12-15T09:49:46.551Z,-4.71
2022-12-15T09:52:19.597Z,-4.98
2022-12-15T09:54:46.924Z,-5.12
2022-12-15T09:57:45.116Z,-5.28
2022-12-15T10:00:28.668Z,-5.77
2022-12-15T10:03:10.887Z,-5.96
2022-12-15T10:06:07.421Z,-5.95
2022-12-15T10:08:33.763Z,-5.78
2022-12-15T10:11:05.443Z,-5.71
2022-12-15T10:13:57.920Z,-5.30
2022-12-15T10:16:39.170Z,-4.68
2022-12-15T10:19:16.608Z,-4.24
2022-12-15T10:21:43.759Z,-3.88
2022-12-15T10:24:37.800Z,-3.90
2022-12-15T10:27:28.551Z,-4.03
2022-12-15T10:29:55.853Z,-3.99
2022-12-15T10:32:42.809Z,-4.08
2022-12-15T10:35:24.345Z,-3.82
2022-12-15T10:37:51.639Z,-3.76
2022-12-15T10:40:40.130Z,-3.72
2022-12-15T10:43:14.776Z,-3.65
2022-12-15T10:45:41.916Z,-3.54
2022-12-15T10:48:19.406Z,-3.60
2022-12-15T10:50:47.290Z,-3.60
2022-12-15T10:53:40.027Z,-3.76
2022-12-15T10:56:09.138Z,-3.65
2022-12-15T10:58:50.163Z,-3.34
2022-12-15T11:01:21.572Z,-3.14
2022-12-15T11:03:52.016Z,-3.00
2022-12-15T11:06:25.510Z,-2.83
2022-12-15T11:09:35.329Z,-3.01
2022-12-15T11:12:39.212Z,-3.20
2022-12-15T11:15:21.724Z,-3.15
2022-12-15T11:18:11.306Z,-3.15
2022-12-15T11:20:46.886Z,-3.22
2022-12-15T11:23:28.232Z,-3.09
2022-12-15T11:26:06.750Z,-2.93
2022-12-15T11:28:44.861Z,-2.77
2022-12-15T11:31:44.037Z,-2.65
2022-12-15T11:34:18.515Z,-2.43
2022-12-15T11:36:51.444Z,-2.39
2022-12-15T11:39:27.419Z,-2.38
2022-12-15T11:42:09.829Z,-2.49
2022-12-15T11:45:02.122Z,-2.49
2022-12-15T11:47:43.161Z,-2.64
2022-12-15T11:50:39.425Z,-2.61
2022-12-15T11:53:17.832Z,-2.59
2022-12-15T11:56:09.918Z,-2.54
2022-12-15T11:58:56.603Z,-2.85
2022-12-15T12:01:32.790Z,-2.63
2022-12-15T12:04:30.437Z,-2.79
2022-12-15T12:07:16.073Z,-2.64
2022-12-15T12:10:08.149Z,-2.67
2022-12-15T12:12:47.386Z,-2.88
2022-12-15T12:15:33.588Z,-2.86
2022-12-15T12:18:17.676Z,-2.90
2022-12-15T12:20:58.713Z,-2.99
2022-12-15T12:23:42.951Z,-3.20
2022-12-15T12:26:37.893Z,-3.09
2022-12-15T12:29:08.032Z,-3.04
2022-12-15T12:31:56.457Z,-3.04
2022-12-15T12:35:31.340Z,-2.99
2022-12-15T12:38:04.828Z,-3.02
2022-12-15T12:40:52.081Z,-3.05
2022-12-15T12:43:32.129Z,-3.17
2022-12-15T12:46:01.890Z,-3.26
2022-12-15T12:48:34.693Z,-3.40
2022-12-15T12:51:25.052Z,-3.39
2022-12-15T12:53:52.598Z,-3.47
2022-12-15T12:56:34.764Z,-3.52
2022-12-15T12:59:08.636Z,-3.48
2022-12-15T13:01:40.078Z,-3.50
2022-12-15T13:04:13.325Z,-3.52
2022-12-15T13:06:40.417Z,-3.44
2022-12-15T13:09:16.504Z,-3.54
2022-12-15T13:12:20.968Z,-3.68
2022-12-15T13:14:54.302Z,-3.67
2022-12-15T13:17:29.674Z,-3.52
2022-12-15T13:19:56.741Z,-3.66
2022-12-15T13:22:39.150Z,-3.74
2022-12-15T13:25:35.705Z,-3.89
2022-12-15T13:28:16.922Z,-3.96
2022-12-15T13:31:21.605Z,-3.99
2022-12-15T13:33:55.818Z,-3.84
2022-12-15T13:36:38.311Z,-3.89
2022-12-15T13:39:28.560Z,-4.04
2022-12-15T13:44:54.559Z,-3.99
2022-12-15T13:47:28.416Z,-4.08
2022-12-15T13:50:03.288Z,-4.02
2022-12-15T13:53:08.459Z,-3.98
2022-12-15T13:55:37.121Z,-4.03
2022-12-15T13:58:13.701Z,-4.24
2022-12-15T14:00:50.328Z,-4.25
2022-12-15T14:03:18.094Z,-4.27
2022-12-15T14:05:57.172Z,-4.19
2022-12-15T14:08:29.495Z,-4.29
2022-12-15T14:11:16.691Z,-4.42
2022-12-15T14:13:54.107Z,-4.43
2022-12-15T14:16:23.420Z,-4.43
2022-12-15T14:19:23.549Z,-4.34
2022-12-15T14:21:56.329Z,-4.21
2022-12-15T14:24:45.084Z,-4.35
2022-12-15T14:27:31.872Z,-4.46
2022-12-15T14:30:20.445Z,-4.66
2022-12-15T14:32:52.596Z,-4.76
2022-12-15T14:35:33.668Z,-4.84
2022-12-15T14:38:05.923Z,-4.90
2022-12-15T14:40:37.718Z,-4.96
2022-12-15T14:43:10.433Z,-5.05
2022-12-15T14:45:37.656Z,-5.09
2022-12-15T14:51:02.509Z,-5.09
2022-12-15T14:53:41.888Z,-5.19
2022-12-15T14:56:20.376Z,-5.30
2022-12-15T14:59:20.267Z,-5.39
2022-12-15T15:03:06.148Z,-5.37
2022-12-15T15:04:41.165Z,-5.38
2022-12-15T15:07:17.454Z,-5.39
2022-12-15T15:09:46.083Z,-5.38
2022-12-15T15:12:17.400Z,-5.39
2022-12-15T15:14:51.786Z,-5.37
2022-12-15T15:17:24.791Z,-5.39
2022-12-15T15:20:00.534Z,-5.45
2022-12-15T15:22:41.106Z,-5.41
2022-12-15T15:25:28.848Z,-5.37
2022-12-15T15:28:14.272Z,-5.33
2022-12-15T15:30:48.964Z,-5.42
2022-12-15T15:33:17.440Z,-5.47
2022-12-15T15:35:47.501Z,-5.46
2022-12-15T15:38:29.329Z,-5.48
2022-12-15T15:41:00.148Z,-5.43
2022-12-15T15:43:28.760Z,-5.40
2022-12-15T15:46:10.855Z,-5.44
2022-12-15T15:48:44.885Z,-5.45
2022-12-15T15:51:12.491Z,-5.38
2022-12-15T15:53:40.145Z,-5.40
2022-12-15T15:56:11.491Z,-5.39
2022-12-15T15:58:38.823Z,-5.39
2022-12-15T16:01:12.760Z,-5.46
2022-12-15T16:03:41.184Z,-5.42
2022-12-15T16:06:18.335Z,-5.52
2022-12-15T16:08:49.015Z,-5.46
2022-12-15T16:11:16.387Z,-5.39
2022-12-15T16:13:44.441Z,-5.40
2022-12-15T16:16:22.881Z,-5.39
2022-12-15T16:18:50.535Z,-5.41
2022-12-15T16:21:18.043Z,-5.39
2022-12-15T16:23:48.102Z,-5.45
2022-12-15T16:26:22.965Z,-5.45
2022-12-15T16:28:50.928Z,-5.48
2022-12-15T16:31:32.792Z,-5.50
2022-12-15T16:34:03.751Z,-5.51
2022-12-15T16:36:35.167Z,-5.51
2022-12-15T16:39:04.309Z,-5.57
2022-12-15T16:41:32.864Z,-5.61
2022-12-15T16:44:00.019Z,-5.63
2022-12-15T16:46:27.326Z,-5.66
2022-12-15T16:48:54.882Z,-5.69
2022-12-15T16:51:37.243Z,-5.67
2022-12-15T16:54:05.152Z,-5.71
2022-12-15T16:56:33.256Z,-5.72
2022-12-15T16:59:31.316Z,-5.74
2022-12-15T17:01:48.254Z,-5.72
2022-12-15T17:04:16.699Z,-5.77
2022-12-15T17:06:50.123Z,-5.83
2022-12-15T17:09:26.308Z,-5.85
2022-12-15T17:12:03.778Z,-5.93
2022-12-15T17:14:34.457Z,-5.94
2022-12-15T17:17:03.843Z,-5.98
2022-12-15T17:19:31.466Z,-6.00
2022-12-15T17:21:59.547Z,-6.02
2022-12-15T17:24:26.722Z,-6.07
2022-12-15T17:26:54.033Z,-6.13
2022-12-15T17:29:25.204Z,-6.21
2022-12-15T17:31:53.504Z,-6.25
2022-12-15T17:34:25.469Z,-6.34
2022-12-15T17:36:53.938Z,-6.44
2022-12-15T17:39:22.632Z,-6.50
2022-12-15T17:42:05.935Z,-6.54
2022-12-15T17:44:37.929Z,-6.53
2022-12-15T17:47:22.984Z,-6.52
2022-12-15T17:49:51.441Z,-6.52
2022-12-15T17:52:33.099Z,-6.55
2022-12-15T17:55:10.296Z,-6.53
2022-12-15T17:57:38.747Z,-6.58
2022-12-15T18:00:19.591Z,-6.60
2022-12-15T18:02:47.772Z,-6.61
2022-12-15T18:05:16.690Z,-6.61
2022-12-15T18:07:44.043Z,-6.67
2022-12-15T18:10:38.456Z,-6.68
2022-12-15T18:13:26.861Z,-6.69
2022-12-15T18:15:56.051Z,-6.72
2022-12-15T18:18:24.535Z,-6.76
2022-12-15T18:20:56.834Z,-6.77
2022-12-15T18:23:26.378Z,-6.79
2022-12-15T18:25:56.159Z,-6.85
2022-12-15T18:28:30.670Z,-6.87
2022-12-15T18:31:13.759Z,-6.88
2022-12-15T18:33:42.733Z,-6.89
2022-12-15T18:36:11.673Z,-6.87
2022-12-15T18:38:39.193Z,-6.88
2022-12-15T18:41:06.938Z,-6.87
2022-12-15T18:43:35.498Z,-6.89
2022-12-15T18:46:02.862Z,-6.91
2022-12-15T18:48:33.414Z,-6.91
2022-12-15T18:51:02.471Z,-6.88
2022-12-15T18:53:35.249Z,-6.93
2022-12-15T18:56:05.781Z,-6.96
2022-12-15T18:59:04.541Z,-7.01
2022-12-15T19:01:32.034Z,-6.99
2022-12-15T19:03:59.456Z,-6.96
2022-12-15T19:06:40.292Z,-7.00
2022-12-15T19:09:17.339Z,-7.01
2022-12-15T19:12:18.224Z,-7.04
2022-12-15T19:14:47.500Z,-7.06
2022-12-15T19:17:36.291Z,-7.04
2022-12-15T19:20:25.452Z,-7.08
2022-12-15T19:22:53.355Z,-7.13
2022-12-15T19:25:26.386Z,-7.13
2022-12-15T19:27:59.107Z,-7.14
2022-12-15T19:30:38.514Z,-7.15
2022-12-15T19:33:09.754Z,-7.15
2022-12-15T19:35:37.761Z,-7.15
2022-12-15T19:38:06.495Z,-7.14
2022-12-15T19:40:35.733Z,-7.15
2022-12-15T19:43:04.512Z,-7.15
2022-12-15T19:45:33.133Z,-7.14
2022-12-15T19:48:00.543Z,-7.12
2022-12-15T19:50:36.943Z,-7.16
2022-12-15T19:53:15.856Z,-7.10
2022-12-15T19:55:44.147Z,-7.13
2022-12-15T19:58:36.446Z,-7.12
2022-12-15T20:01:10.540Z,-7.09
2022-12-15T20:03:39.178Z,-7.08
2022-12-15T20:06:14.639Z,-7.03
2022-12-15T20:08:43.385Z,-6.99
2022-12-15T20:11:18.367Z,-6.99
2022-12-15T20:13:46.739Z,-6.97
2022-12-15T20:16:17.570Z,-6.96
2022-12-15T20:18:51.036Z,-6.94
2022-12-15T20:21:22.463Z,-6.89
2022-12-15T20:24:02.161Z,-6.90
2022-12-15T20:26:30.820Z,-6.92
2022-12-15T20:28:58.846Z,-6.94
2022-12-15T20:31:26.814Z,-6.95
2022-12-15T20:33:54.423Z,-6.94
2022-12-15T20:36:28.534Z,-6.97
2022-12-15T20:38:56.962Z,-6.96
2022-12-15T20:41:27.260Z,-6.81
2022-12-15T20:43:55.827Z,-6.76
2022-12-15T20:46:26.600Z,-6.87
2022-12-15T20:48:55.425Z,-6.86
2022-12-15T20:51:27.636Z,-6.72
2022-12-15T20:53:56.897Z,-6.69
2022-12-15T20:56:24.875Z,-6.61
2022-12-15T20:58:54.204Z,-6.70
2022-12-15T21:01:31.865Z,-6.75
2022-12-15T21:04:00.242Z,-6.80
2022-12-15T21:06:28.953Z,-6.80
2022-12-15T21:08:56.707Z,-6.79
2022-12-15T21:11:25.780Z,-6.73
2022-12-15T21:13:56.562Z,-6.73
2022-12-15T21:16:27.605Z,-6.76
2022-12-15T21:21:48.789Z,-6.65
2022-12-15T21:24:27.704Z,-6.52
2022-12-15T21:26:55.363Z,-6.48
2022-12-15T21:29:23.862Z,-6.62
2022-12-15T21:31:51.096Z,-6.63
2022-12-15T21:34:18.655Z,-6.61
2022-12-15T21:36:50.304Z,-6.57
2022-12-15T21:39:25.364Z,-6.49
2022-12-15T21:41:52.681Z,-6.45
2022-12-15T21:44:22.390Z,-6.39
2022-12-15T21:46:49.675Z,-6.33
2022-12-15T21:49:19.084Z,-6.38
2022-12-15T21:51:50.699Z,-6.41
2022-12-15T21:54:30.653Z,-6.43
2022-12-15T21:56:59.881Z,-6.44
2022-12-15T21:59:30.177Z,-6.44
2022-12-15T22:01:59.534Z,-6.46
2022-12-15T22:04:31.644Z,-6.51
2022-12-15T22:06:59.908Z,-6.57
2022-12-15T22:09:27.439Z,-6.61
2022-12-15T22:11:56.485Z,-6.65
2022-12-15T22:14:31.941Z,-6.69
2022-12-15T22:17:01.244Z,-6.67
2022-12-15T22:19:28.662Z,-6.69
2022-12-15T22:21:56.138Z,-6.70
2022-12-15T22:24:23.388Z,-6.70
2022-12-15T22:26:51.152Z,-6.67
2022-12-15T22:29:21.653Z,-6.61
2022-12-15T22:31:50.592Z,-6.31
2022-12-15T22:34:24.323Z,-6.31
2022-12-15T22:36:52.180Z,-6.31
2022-12-15T22:39:19.817Z,-6.33
2022-12-15T22:41:50.409Z,-6.17
2022-12-15T22:44:23.580Z,-6.22
2022-12-15T22:46:52.402Z,-6.30
2022-12-15T22:49:24.691Z,-6.35
2022-12-15T22:51:52.107Z,-6.36
2022-12-15T22:54:21.153Z,-6.28
2022-12-15T22:56:58.405Z,-6.24
2022-12-15T22:59:42.023Z,-6.26
2022-12-15T23:02:10.877Z,-6.16
2022-12-15T23:04:38.135Z,-6.14
2022-12-15T23:07:11.445Z,-6.21
2022-12-15T23:09:38.870Z,-6.21
2022-12-15T23:12:06.268Z,-6.12
2022-12-15T23:14:52.291Z,-6.14
2022-12-15T23:17:19.707Z,-6.29
2022-12-15T23:19:47.130Z,-6.33
2022-12-15T23:22:14.481Z,-6.36
2022-12-15T23:24:41.836Z,-6.37
2022-12-15T23:27:12.534Z,-6.38
2022-12-15T23:29:39.931Z,-6.33
2022-12-15T23:32:10.333Z,-6.27
2022-12-15T23:34:37.576Z,-6.13
2022-12-15T23:37:04.773Z,-6.03
2022-12-15T23:39:31.939Z,-5.98
2022-12-15T23:41:59.143Z,-5.90
2022-12-15T23:44:26.357Z,-5.82
2022-12-15T23:46:54.024Z,-5.71
2022-12-15T23:49:21.274Z,-5.79
2022-12-15T23:51:48.984Z,-5.83
2022-12-15T23:54:16.153Z,-5.81
2022-12-15T23:56:43.383Z,-5.86
2022-12-15T23:59:11.576Z,-5.90
